MMLM/LMM METAR and TAF weather

Enter ICAO airport designator
Station Type Date Time Source
MMLM METAR 2020/07/12 18:41 UTC NOAA

MMLM 121841Z 18014KT 10SM SKC 35/22 A2984 RMK ISOL CU AC


Station Type Date Time Source
MMLM Decoded METAR 2020/07/12 18:41 UTC NOAA

Los Mochis Airport, Mexico (MMLM) 25-41N 109-05W
Jul 12, 2020 - 02:41 PM EDT / 2020.07.12 1841 UTC
Wind: from the S (180 degrees) at 16 MPH (14 KT):0
Visibility: 10 mile(s):0
Sky conditions: clear
Temperature: 95 F (35 C)
Heat index: 102.6 F (39.2 C):1
Dew Point: 71 F (22 C)
Relative Humidity: 46%
Pressure (altimeter): 29.84 in. Hg (1010 hPa)
ob: MMLM 121841Z 18014KT 10SM SKC 35/22 A2984 RMK ISOL CU AC
cycle: 18

Station Type Date Time Source
MMLM TAF 2020/07/12 18:10 UTC NOAA

TAF MMLM 121704Z 1218/1318 12010KT P6SM BKN080
FM122100 23015KT P6SM SCT030
FM130300 09010KT P6SM SCT020 BKN250 PROB40 1310/1314 5SM RA BKN020CB

Example: see airport list